createdAt,value
2022-11-03T00:01:11.607Z,23.70
2022-11-03T00:03:38.243Z,23.76
2022-11-03T00:06:04.840Z,23.79
2022-11-03T00:08:39.825Z,23.73
2022-11-03T00:11:14.093Z,23.82
2022-11-03T00:13:42.100Z,23.73
2022-11-03T00:16:09.739Z,23.68
2022-11-03T00:18:36.339Z,23.76
2022-11-03T00:21:04.680Z,23.72
2022-11-03T00:23:32.805Z,23.68
2022-11-03T00:26:14.643Z,23.76
2022-11-03T00:28:42.481Z,23.71
2022-11-03T00:31:14.133Z,23.76
2022-11-03T00:33:41.135Z,23.84
2022-11-03T00:36:08.216Z,23.75
2022-11-03T00:38:34.830Z,23.70
2022-11-03T00:41:02.223Z,23.71
2022-11-03T00:43:30.382Z,23.73
2022-11-03T00:45:57.001Z,23.74
2022-11-03T00:48:23.650Z,23.73
2022-11-03T00:50:50.265Z,23.87
2022-11-03T00:53:16.865Z,23.73
2022-11-03T00:55:49.927Z,23.78
2022-11-03T00:58:16.530Z,23.85
2022-11-03T01:00:43.217Z,23.87
2022-11-03T01:03:09.831Z,23.77
2022-11-03T01:05:40.963Z,23.76
2022-11-03T01:08:07.611Z,23.78
2022-11-03T01:10:36.448Z,23.90
2022-11-03T01:13:03.199Z,23.74
2022-11-03T01:15:29.860Z,23.79
2022-11-03T01:17:56.465Z,23.76
2022-11-03T01:20:23.061Z,23.89
2022-11-03T01:22:49.660Z,23.83
2022-11-03T01:25:16.266Z,23.97
2022-11-03T01:27:42.866Z,23.95
2022-11-03T01:30:09.883Z,23.78
2022-11-03T01:32:36.494Z,23.75
2022-11-03T01:35:03.244Z,23.74
2022-11-03T01:37:29.851Z,23.76
2022-11-03T01:39:56.462Z,23.85
2022-11-03T01:42:23.075Z,23.80
2022-11-03T01:44:49.680Z,23.79
2022-11-03T01:47:18.907Z,23.68
2022-11-03T01:49:58.610Z,23.71
2022-11-03T01:52:32.594Z,23.76
2022-11-03T01:55:01.262Z,23.78
2022-11-03T01:57:41.276Z,23.71
2022-11-03T02:00:08.249Z,23.71
2022-11-03T02:02:34.917Z,23.66
2022-11-03T02:05:02.017Z,23.68
2022-11-03T02:07:33.352Z,23.73
2022-11-03T02:09:59.956Z,23.72
2022-11-03T02:12:26.569Z,23.69
2022-11-03T02:15:02.361Z,23.74
2022-11-03T02:17:29.376Z,23.72
2022-11-03T02:20:00.103Z,23.66
2022-11-03T02:22:52.315Z,23.65
2022-11-03T02:25:41.942Z,23.70
2022-11-03T02:28:08.557Z,23.66
2022-11-03T02:31:00.219Z,23.73
2022-11-03T02:33:41.577Z,23.67
2022-11-03T02:36:18.024Z,23.78
2022-11-03T02:39:02.145Z,23.72
2022-11-03T02:41:29.085Z,23.69
2022-11-03T02:43:56.160Z,23.73
2022-11-03T02:46:22.767Z,23.70
2022-11-03T02:48:49.369Z,23.78
2022-11-03T02:51:15.972Z,23.73
2022-11-03T02:53:55.457Z,23.69
2022-11-03T02:56:22.084Z,23.70
2022-11-03T02:58:56.662Z,23.71
2022-11-03T03:01:39.862Z,23.66
2022-11-03T03:04:08.014Z,23.66
2022-11-03T03:06:37.557Z,23.68
2022-11-03T03:09:06.460Z,23.73
2022-11-03T03:11:33.865Z,23.71
2022-11-03T03:14:00.464Z,23.67
2022-11-03T03:16:27.078Z,23.72
2022-11-03T03:18:59.618Z,23.69
2022-11-03T03:21:26.881Z,23.61
2022-11-03T03:23:57.441Z,23.60
2022-11-03T03:26:45.503Z,23.67
2022-11-03T03:29:17.280Z,23.61
2022-11-03T03:31:47.924Z,23.64
2022-11-03T03:34:33.759Z,23.65
2022-11-03T03:37:01.744Z,23.74
2022-11-03T03:39:31.694Z,23.65
2022-11-03T03:41:58.298Z,23.61
2022-11-03T03:44:24.918Z,23.56
2022-11-03T03:46:53.233Z,23.70
2022-11-03T03:49:19.837Z,23.60
2022-11-03T03:51:46.457Z,23.65
2022-11-03T03:54:13.049Z,23.65
2022-11-03T03:56:43.662Z,23.64
2022-11-03T03:59:10.281Z,23.61
2022-11-03T04:01:36.965Z,23.61
2022-11-03T04:04:03.945Z,23.63
2022-11-03T04:06:30.586Z,23.64
2022-11-03T04:08:57.198Z,23.65
2022-11-03T04:11:23.810Z,23.61
2022-11-03T04:13:50.411Z,23.76
2022-11-03T04:16:17.028Z,23.71
2022-11-03T04:18:43.673Z,23.61
2022-11-03T04:21:12.481Z,23.65
2022-11-03T04:23:39.085Z,23.59
2022-11-03T04:26:10.060Z,23.77
2022-11-03T04:28:36.667Z,23.55
2022-11-03T04:31:03.257Z,23.64
2022-11-03T04:33:29.886Z,23.56
2022-11-03T04:35:58.289Z,23.64
2022-11-03T04:38:26.113Z,23.56
2022-11-03T04:40:59.307Z,23.62
2022-11-03T04:43:35.357Z,23.58
2022-11-03T04:46:01.956Z,23.65
2022-11-03T04:48:28.835Z,23.63
2022-11-03T04:50:56.592Z,23.64
2022-11-03T04:53:23.205Z,23.69
2022-11-03T04:55:51.146Z,23.64
2022-11-03T04:58:34.185Z,23.64
2022-11-03T05:01:01.234Z,23.61
2022-11-03T05:03:30.425Z,23.51
2022-11-03T05:05:57.301Z,23.65
2022-11-03T05:08:23.913Z,23.71
2022-11-03T05:10:50.521Z,23.64
2022-11-03T05:13:22.097Z,23.61
2022-11-03T05:15:48.714Z,23.59
2022-11-03T05:18:30.889Z,23.88
2022-11-03T05:21:00.819Z,23.78
2022-11-03T05:23:27.976Z,23.75
2022-11-03T05:25:54.582Z,23.79
2022-11-03T05:28:28.580Z,23.71
2022-11-03T05:30:55.217Z,23.61
2022-11-03T05:33:42.035Z,23.79
2022-11-03T05:36:13.799Z,23.73
2022-11-03T05:38:40.404Z,23.79
2022-11-03T05:41:13.044Z,23.71
2022-11-03T05:43:39.659Z,23.75
2022-11-03T05:46:08.521Z,23.69
2022-11-03T07:09:24.527Z,21.56
2022-11-03T07:11:58.204Z,21.95
2022-11-03T07:14:27.853Z,22.34
2022-11-03T07:17:04.129Z,22.57
2022-11-03T07:19:35.253Z,22.88
2022-11-03T07:22:03.777Z,23.11
2022-11-03T07:24:31.922Z,22.79
2022-11-03T07:27:31.289Z,22.62
2022-11-03T07:29:59.124Z,22.81
2022-11-03T07:32:30.230Z,23.02
2022-11-03T07:35:22.563Z,23.10
2022-11-03T07:37:50.019Z,23.19
2022-11-03T07:40:24.495Z,23.11
2022-11-03T07:42:51.438Z,23.13
2022-11-03T07:45:40.137Z,23.20
2022-11-03T07:48:26.518Z,23.22
2022-11-03T07:50:54.530Z,23.25
2022-11-03T07:53:26.122Z,23.28
2022-11-03T07:55:53.903Z,23.29
2022-11-03T07:58:20.426Z,23.35
2022-11-03T08:00:47.042Z,23.36
2022-11-03T08:03:24.957Z,23.38
2022-11-03T08:05:51.583Z,23.41
2022-11-03T08:08:18.176Z,23.39
2022-11-03T08:10:44.785Z,23.41
2022-11-03T08:13:11.397Z,23.43
2022-11-03T08:15:38.001Z,23.44
2022-11-03T08:18:04.685Z,23.46
2022-11-03T08:20:31.277Z,23.48
2022-11-03T08:23:25.213Z,23.49
2022-11-03T08:25:44.465Z,23.46
2022-11-03T08:28:11.110Z,23.53
2022-11-03T08:30:37.767Z,23.57
2022-11-03T08:33:04.656Z,23.51
2022-11-03T08:35:34.003Z,23.51
2022-11-03T08:38:00.833Z,23.54
2022-11-03T08:40:27.438Z,23.53
2022-11-03T08:42:54.055Z,23.54
2022-11-03T08:45:20.660Z,23.59
2022-11-03T08:47:47.307Z,23.55
2022-11-03T08:50:13.912Z,23.57
2022-11-03T08:52:40.522Z,23.59
2022-11-03T08:55:07.423Z,23.58
2022-11-03T08:57:34.036Z,23.58
2022-11-03T09:00:00.638Z,23.59
2022-11-03T09:02:27.300Z,23.55
2022-11-03T09:04:53.911Z,23.55
2022-11-03T09:07:21.189Z,23.58
2022-11-03T09:12:34.490Z,23.67
2022-11-03T09:15:01.099Z,23.68
2022-11-03T09:17:27.723Z,23.70
2022-11-03T09:19:54.329Z,23.71
2022-11-03T09:22:20.930Z,23.76
2022-11-03T09:24:47.551Z,23.82
2022-11-03T09:27:14.162Z,23.78
2022-11-03T09:30:10.856Z,24.00
2022-11-03T09:32:27.366Z,23.87
2022-11-03T09:34:53.989Z,23.99
2022-11-03T09:37:20.599Z,23.98
2022-11-03T09:39:47.206Z,24.12
2022-11-03T09:42:13.805Z,24.09
2022-11-03T09:44:40.426Z,24.15
2022-11-03T09:47:07.077Z,24.21
2022-11-03T09:49:33.984Z,24.05
2022-11-03T09:52:01.266Z,24.16
2022-11-03T09:54:27.878Z,24.03
2022-11-03T09:56:54.481Z,24.08
2022-11-03T09:59:23.061Z,24.04
2022-11-03T10:01:50.638Z,24.14
2022-11-03T10:04:17.413Z,24.21
2022-11-03T10:06:44.008Z,24.05
2022-11-03T10:09:16.040Z,24.14
2022-11-03T10:11:42.656Z,24.12
2022-11-03T10:14:10.033Z,24.06
2022-11-03T10:16:36.651Z,24.03
2022-11-03T10:19:03.256Z,23.98
2022-11-03T10:21:30.864Z,24.01
2022-11-03T10:23:57.470Z,24.05
2022-11-03T10:26:24.134Z,24.10
2022-11-03T10:29:06.495Z,24.12
2022-11-03T10:31:36.712Z,24.03
2022-11-03T10:34:03.540Z,24.07
2022-11-03T10:36:31.457Z,24.02
2022-11-03T10:38:58.122Z,24.04
2022-11-03T10:41:26.381Z,24.00
2022-11-03T10:44:10.876Z,24.06
2022-11-03T10:46:50.559Z,23.99
2022-11-03T10:49:18.385Z,24.02
2022-11-03T10:51:47.906Z,24.01
2022-11-03T10:54:15.776Z,24.02
2022-11-03T10:56:42.622Z,23.94
2022-11-03T10:59:13.187Z,23.92
2022-11-03T11:01:40.053Z,24.01
2022-11-03T11:04:06.834Z,23.98
2022-11-03T11:06:33.597Z,24.03
2022-11-03T11:09:04.461Z,23.93
2022-11-03T11:11:31.160Z,23.76
2022-11-03T11:14:23.460Z,23.83
2022-11-03T11:16:51.801Z,23.83
2022-11-03T11:19:18.479Z,23.82
2022-11-03T11:21:44.942Z,23.95
2022-11-03T11:24:11.613Z,23.92
2022-11-03T11:26:38.323Z,23.92
2022-11-03T11:29:07.849Z,23.93
2022-11-03T11:31:35.121Z,23.87
2022-11-03T11:34:10.649Z,23.86
2022-11-03T11:36:38.513Z,23.85
2022-11-03T11:39:20.253Z,23.89
2022-11-03T11:42:05.440Z,24.01
2022-11-03T11:44:43.982Z,24.01
2022-11-03T11:47:28.828Z,23.90
2022-11-03T11:50:07.475Z,23.86
2022-11-03T11:52:46.549Z,23.88
2022-11-03T11:55:46.823Z,23.84
2022-11-03T11:58:18.948Z,24.00
2022-11-03T12:01:20.731Z,24.02
2022-11-03T12:03:47.441Z,23.86
2022-11-03T12:06:14.270Z,23.83
2022-11-03T12:08:41.305Z,23.93
2022-11-03T12:11:08.077Z,23.80
2022-11-03T12:13:42.168Z,23.87
2022-11-03T12:16:08.791Z,23.91
2022-11-03T12:18:47.669Z,23.88
2022-11-03T12:21:44.638Z,23.95
2022-11-03T12:24:32.741Z,23.94
2022-11-03T12:26:59.861Z,23.96
2022-11-03T12:29:26.511Z,23.93
2022-11-03T12:31:53.313Z,23.91
2022-11-03T12:34:19.923Z,23.87
2022-11-03T12:36:47.970Z,23.87
2022-11-03T12:39:16.237Z,23.98
2022-11-03T12:41:42.836Z,23.85
2022-11-03T12:44:09.514Z,23.98
2022-11-03T12:46:36.161Z,23.99
2022-11-03T12:49:02.791Z,23.99
2022-11-03T12:51:29.400Z,24.08
2022-11-03T12:53:56.030Z,24.08
2022-11-03T12:56:22.654Z,24.03
2022-11-03T12:58:49.298Z,24.06
2022-11-03T13:01:15.996Z,23.98
2022-11-03T13:03:42.724Z,24.09
2022-11-03T13:06:09.395Z,24.18
2022-11-03T13:08:36.342Z,24.10
2022-11-03T13:11:02.960Z,24.20
2022-11-03T13:13:29.578Z,24.14
2022-11-03T13:15:56.185Z,24.09
2022-11-03T13:18:22.825Z,24.08
2022-11-03T13:20:49.424Z,23.91
2022-11-03T13:23:18.778Z,24.05
2022-11-03T13:25:48.668Z,24.10
2022-11-03T13:28:15.335Z,24.06
2022-11-03T13:30:41.949Z,24.12
2022-11-03T13:33:08.940Z,24.11
2022-11-03T13:35:35.965Z,24.05
2022-11-03T13:38:02.649Z,24.05
2022-11-03T13:40:54.762Z,24.02
2022-11-03T13:43:15.864Z,23.94
2022-11-03T13:45:42.476Z,23.91
2022-11-03T13:50:55.751Z,23.94
2022-11-03T13:56:13.226Z,23.63
2022-11-03T14:01:30.829Z,23.62
2022-11-03T14:06:44.105Z,23.63
2022-11-03T14:09:10.739Z,23.57
2022-11-03T14:11:37.406Z,23.46
2022-11-03T14:14:04.013Z,23.42
2022-11-03T14:16:30.706Z,23.53
2022-11-03T14:18:57.377Z,23.40
2022-11-03T14:21:24.016Z,23.47
2022-11-03T14:23:50.625Z,23.52
2022-11-03T14:26:23.946Z,23.44
2022-11-03T14:29:00.194Z,23.50
2022-11-03T14:31:26.811Z,23.42
2022-11-03T14:33:53.414Z,23.36
2022-11-03T14:36:20.033Z,23.40
2022-11-03T14:38:50.009Z,23.37
2022-11-03T14:41:16.810Z,23.30
2022-11-03T14:43:43.429Z,23.32
2022-11-03T14:46:10.084Z,23.33
2022-11-03T14:48:36.778Z,23.39
2022-11-03T14:51:03.407Z,23.35
2022-11-03T14:53:30.006Z,23.35
2022-11-03T14:55:56.741Z,23.37
2022-11-03T14:58:23.335Z,23.39
2022-11-03T15:00:49.971Z,23.41
2022-11-03T15:03:16.778Z,23.37
2022-11-03T15:05:43.397Z,23.38
2022-11-03T15:08:13.722Z,23.33
2022-11-03T15:10:40.345Z,23.37
2022-11-03T15:13:07.167Z,23.38
2022-11-03T15:15:34.070Z,23.35
2022-11-03T15:18:02.962Z,23.38
2022-11-03T15:20:30.012Z,23.33
2022-11-03T15:25:43.254Z,23.36
2022-11-03T15:28:10.070Z,23.39
2022-11-03T15:30:36.812Z,23.34
2022-11-03T15:33:03.606Z,23.37
2022-11-03T15:35:30.298Z,23.34
2022-11-03T15:37:56.954Z,23.34
2022-11-03T15:40:23.562Z,23.38
2022-11-03T15:42:50.167Z,23.34
2022-11-03T15:45:16.835Z,23.41
2022-11-03T15:47:43.546Z,23.38
2022-11-03T15:50:10.356Z,23.34
2022-11-03T15:52:36.960Z,23.28
2022-11-03T15:55:04.313Z,23.18
2022-11-03T15:57:30.982Z,23.18
2022-11-03T15:59:57.957Z,23.30
2022-11-03T16:02:40.734Z,23.33
2022-11-03T16:05:09.201Z,23.34
2022-11-03T16:07:35.818Z,23.24
2022-11-03T16:10:02.552Z,23.28
2022-11-03T16:12:30.076Z,23.20
2022-11-03T16:14:56.757Z,23.34
2022-11-03T16:17:23.365Z,23.33
2022-11-03T16:19:50.074Z,23.28
2022-11-03T16:22:16.686Z,23.30
2022-11-03T16:24:43.290Z,23.32
2022-11-03T16:27:09.985Z,23.35
2022-11-03T16:29:36.608Z,23.31
2022-11-03T16:32:03.223Z,23.26
2022-11-03T16:34:29.840Z,23.36
2022-11-03T16:36:56.463Z,23.29
2022-11-03T16:39:23.058Z,23.35
2022-11-03T16:41:49.665Z,23.39
2022-11-03T16:44:16.272Z,23.21
2022-11-03T16:46:42.882Z,23.56
2022-11-03T16:49:09.484Z,23.75
2022-11-03T16:51:36.098Z,23.83
2022-11-03T16:54:02.698Z,23.92
2022-11-03T16:56:29.298Z,23.92
2022-11-03T16:58:55.915Z,23.77
2022-11-03T17:01:22.887Z,23.92
2022-11-03T17:03:49.557Z,23.91
2022-11-03T17:06:16.182Z,23.84
2022-11-03T17:08:57.991Z,23.80
2022-11-03T17:11:24.610Z,23.33
2022-11-03T17:13:51.257Z,23.33
2022-11-03T17:16:17.911Z,23.09
2022-11-03T17:18:44.509Z,23.01
2022-11-03T17:21:11.126Z,23.05
2022-11-03T17:23:37.733Z,23.33
2022-11-03T17:26:04.374Z,23.38
2022-11-03T17:28:30.994Z,23.30
2022-11-03T17:30:57.597Z,23.75
2022-11-03T17:33:24.201Z,23.70
2022-11-03T17:35:50.809Z,23.65
2022-11-03T17:38:17.494Z,23.58
2022-11-03T17:40:47.485Z,23.64
2022-11-03T17:43:26.396Z,23.84
2022-11-03T17:45:53.005Z,23.72
2022-11-03T17:48:20.021Z,23.77
2022-11-03T17:50:48.690Z,23.69
2022-11-03T17:53:33.445Z,23.60
2022-11-03T17:56:28.513Z,23.56
2022-11-03T17:58:47.466Z,23.52
2022-11-03T18:01:19.994Z,23.48
2022-11-03T18:03:46.699Z,23.73
2022-11-03T18:06:15.621Z,23.58
2022-11-03T18:08:42.296Z,23.61
2022-11-03T18:11:09.009Z,23.57
2022-11-03T18:13:35.612Z,23.59
2022-11-03T18:16:05.403Z,23.55
2022-11-03T18:18:34.430Z,23.64
2022-11-03T18:21:01.061Z,23.58
2022-11-03T18:23:31.873Z,23.60
2022-11-03T18:25:59.241Z,23.75
2022-11-03T18:28:25.844Z,23.58
2022-11-03T18:30:53.605Z,23.56
2022-11-03T18:33:34.445Z,23.58
2022-11-03T18:36:05.266Z,23.55
2022-11-03T18:38:31.876Z,23.74
2022-11-03T18:40:58.481Z,23.70
2022-11-03T18:43:25.202Z,23.84
2022-11-03T18:45:51.867Z,23.87
2022-11-03T18:48:18.469Z,23.80
2022-11-03T18:50:46.658Z,23.60
2022-11-03T18:53:13.302Z,23.65
2022-11-03T18:55:39.965Z,23.55
2022-11-03T18:58:12.993Z,23.52
2022-11-03T19:00:39.636Z,23.59
2022-11-03T19:03:18.043Z,23.53
2022-11-03T19:05:45.486Z,23.66
2022-11-03T19:08:21.946Z,23.67
2022-11-03T19:10:48.624Z,23.64
2022-11-03T19:13:18.637Z,23.72
2022-11-03T19:15:45.243Z,23.47
2022-11-03T19:18:11.990Z,23.72
2022-11-03T19:20:38.602Z,23.76
2022-11-03T19:23:05.490Z,23.67
2022-11-03T19:25:32.417Z,23.57
2022-11-03T19:27:59.025Z,23.61
2022-11-03T19:30:25.646Z,23.70
2022-11-03T19:32:53.453Z,23.66
2022-11-03T19:35:25.831Z,23.88
2022-11-03T19:38:00.829Z,23.64
2022-11-03T19:40:27.833Z,23.61
2022-11-03T19:42:55.155Z,23.57
2022-11-03T19:45:22.052Z,23.42
2022-11-03T19:48:18.364Z,23.40
2022-11-03T19:50:38.232Z,23.46
2022-11-03T19:53:05.873Z,23.53
2022-11-03T19:55:40.132Z,23.62
2022-11-03T19:58:17.017Z,23.69
2022-11-03T20:00:44.349Z,23.74
2022-11-03T20:03:11.080Z,23.81
2022-11-03T20:05:37.970Z,23.83
2022-11-03T20:08:06.414Z,23.95
2022-11-03T20:10:35.878Z,24.01
2022-11-03T20:13:03.133Z,24.01
2022-11-03T20:15:30.727Z,24.06
2022-11-03T20:17:57.381Z,24.11
2022-11-03T20:20:24.430Z,24.11
2022-11-03T20:22:55.753Z,24.18
2022-11-03T20:25:26.729Z,24.18
2022-11-03T20:27:53.474Z,24.25
2022-11-03T20:30:20.732Z,24.28
2022-11-03T20:32:47.479Z,24.27
2022-11-03T20:35:25.053Z,24.34
2022-11-03T20:37:53.316Z,24.34
2022-11-03T20:40:24.231Z,24.34
2022-11-03T20:42:53.679Z,24.43
2022-11-03T20:45:20.980Z,24.44
2022-11-03T20:47:48.418Z,24.39
2022-11-03T20:50:15.921Z,24.44
2022-11-03T20:52:42.775Z,24.48
2022-11-03T20:55:22.201Z,24.54
2022-11-03T20:57:49.007Z,24.55
2022-11-03T21:00:25.854Z,24.54
2022-11-03T21:02:52.469Z,24.58
2022-11-03T21:05:21.133Z,24.60
2022-11-03T21:07:47.758Z,24.64
2022-11-03T21:10:20.212Z,24.64
2022-11-03T21:12:47.323Z,24.61
2022-11-03T21:15:17.770Z,24.65
2022-11-03T21:17:44.674Z,24.69
2022-11-03T21:20:11.401Z,24.69
2022-11-03T21:22:56.925Z,24.73
2022-11-03T21:25:24.178Z,24.71
2022-11-03T21:27:51.575Z,24.73
2022-11-03T21:30:18.699Z,24.63
2022-11-03T21:32:45.351Z,24.10
2022-11-03T21:35:14.468Z,23.85
2022-11-03T21:37:41.129Z,23.93
2022-11-03T21:40:08.417Z,23.83
2022-11-03T21:42:35.030Z,23.76
2022-11-03T21:45:01.655Z,23.54
2022-11-03T21:47:28.309Z,23.45
2022-11-03T21:49:54.984Z,23.37
2022-11-03T21:52:22.295Z,23.20
2022-11-03T21:54:48.909Z,23.26
2022-11-03T21:57:15.552Z,23.23
2022-11-03T21:59:42.157Z,23.31
2022-11-03T22:02:10.043Z,23.14
2022-11-03T22:04:36.704Z,23.18
2022-11-03T22:07:03.330Z,23.15
2022-11-03T22:09:29.941Z,23.14
2022-11-03T22:11:56.539Z,23.13
2022-11-03T22:14:23.152Z,23.09
2022-11-03T22:16:49.840Z,23.04
2022-11-03T22:19:17.957Z,23.04
2022-11-03T22:21:44.570Z,23.01
2022-11-03T22:24:11.170Z,23.16
2022-11-03T22:26:37.784Z,23.19
2022-11-03T22:29:04.398Z,23.24
2022-11-03T22:31:31.426Z,23.25
2022-11-03T22:33:58.028Z,23.08
2022-11-03T22:36:24.648Z,23.03
2022-11-03T22:38:51.295Z,23.00
2022-11-03T22:41:17.913Z,22.98
2022-11-03T22:43:44.514Z,23.02
2022-11-03T22:46:11.557Z,22.99
2022-11-03T22:48:38.170Z,23.03
2022-11-03T22:51:12.110Z,22.96
2022-11-03T22:53:38.717Z,23.00
2022-11-03T22:56:05.330Z,22.96
2022-11-03T22:58:31.934Z,22.95
2022-11-03T23:01:02.625Z,23.02
2022-11-03T23:03:33.568Z,23.02
2022-11-03T23:06:01.645Z,22.94
2022-11-03T23:08:29.890Z,22.97
2022-11-03T23:10:56.550Z,22.94
2022-11-03T23:13:23.181Z,22.94
2022-11-03T23:15:49.790Z,23.03
2022-11-03T23:18:16.387Z,22.95
2022-11-03T23:20:43.000Z,22.95
2022-11-03T23:23:09.941Z,22.94
2022-11-03T23:25:36.870Z,22.92
2022-11-03T23:28:03.484Z,22.92
2022-11-03T23:30:30.075Z,22.96
2022-11-03T23:32:56.678Z,22.90
2022-11-03T23:35:23.282Z,22.91
2022-11-03T23:37:49.886Z,23.06
2022-11-03T23:40:20.347Z,22.96
2022-11-03T23:42:48.171Z,22.95
2022-11-03T23:45:14.787Z,22.94
2022-11-03T23:47:41.387Z,22.96
2022-11-03T23:50:08.229Z,22.95
2022-11-03T23:52:34.834Z,22.96
2022-11-03T23:55:01.444Z,23.05
2022-11-03T23:57:28.081Z,23.15
2022-11-03T23:59:54.698Z,22.94
